Time;durP1;ratioP1;P1;durP2;ratioP2;P2;SDS_P1;SDS_P2;PMS_P1;PMS_P2;Temp;Humidity;BMP_temperature;BMP_pressure;BME280_temperature;BME280_humidity;BME280_pressure;Samples;Min_cycle;Max_cycle;Signal;HPM_P1;HPM_P2
2021/01/21 00:02:11;;;;;;;664.75;434.13;;;0.30;2201.60;;;;;;5104475;28;20024;-80
2021/01/21 00:04:37;;;;;;;618.60;404.10;;;0.10;2201.60;;;;;;5101568;28;20028;-78
2021/01/21 00:07:03;;;;;;;614.38;399.88;;;0.10;2201.60;;;;;;5102102;28;20054;-79
2021/01/21 00:09:29;;;;;;;641.35;419.90;;;0.00;2201.60;;;;;;5102688;28;20127;-77
2021/01/21 00:11:54;;;;;;;614.00;395.40;;;12.90;2201.60;;;;;;5103591;28;20082;-78
2021/01/21 00:14:20;;;;;;;639.25;413.60;;;0.10;2201.60;;;;;;5105542;28;20024;-78
2021/01/21 00:16:46;;;;;;;601.88;376.83;;;0.10;2201.60;;;;;;5105009;28;20028;-78
2021/01/21 00:19:12;;;;;;;594.67;382.55;;;0.10;2201.60;;;;;;5099392;28;20031;-77
2021/01/21 00:21:39;;;;;;;651.22;420.90;;;0.20;2201.60;;;;;;5095902;28;20020;-78
2021/01/21 00:24:09;;;;;;;686.85;439.77;;;0.10;2201.60;;;;;;5106024;28;20024;-78
2021/01/21 00:26:35;;;;;;;642.60;409.20;;;0.10;2201.60;;;;;;5105445;28;20561;-79
2021/01/21 00:29:01;;;;;;;572.22;358.25;;;0.10;2201.60;;;;;;5104417;28;20023;-78
2021/01/21 00:31:28;;;;;;;501.48;317.77;;;0.20;2201.60;;;;;;5105934;28;20087;-78
2021/01/21 00:33:54;;;;;;;483.17;304.30;;;0.00;2201.60;;;;;;5106867;28;20027;-78
2021/01/21 00:36:20;;;;;;;502.67;319.42;;;0.10;2201.60;;;;;;5108344;28;20491;-78
2021/01/21 00:38:47;;;;;;;483.65;304.30;;;0.00;2201.60;;;;;;5112857;28;20038;-78
2021/01/21 00:41:13;;;;;;;505.35;319.15;;;12.90;2201.60;;;;;;5108935;28;20040;-79
2021/01/21 00:43:41;;;;;;;488.00;304.40;;;13.00;2201.60;;;;;;5099965;28;20050;-77
2021/01/21 00:46:06;;;;;;;524.17;326.15;;;12.90;2201.60;;;;;;5121686;28;20023;-78
2021/01/21 00:48:42;;;;;;;575.92;368.80;;;12.90;2201.60;;;;;;5121301;28;20028;-78
2021/01/21 00:51:09;;;;;;;570.25;366.20;;;13.00;2201.60;;;;;;5127640;28;20019;-78
2021/01/21 00:53:35;;;;;;;589.53;382.23;;;0.00;2201.60;;;;;;5123406;28;20059;-78
2021/01/21 00:56:03;;;;;;;655.60;410.55;;;0.00;2201.60;;;;;;5104572;28;20026;-79
2021/01/21 00:58:33;;;;;;;639.92;402.70;;;0.00;2201.60;;;;;;5102753;28;20036;-78
2021/01/21 01:01:02;;;;;;;639.97;412.90;;;0.10;2201.60;;;;;;5101546;28;20534;-77
2021/01/21 01:03:30;;;;;;;629.33;406.13;;;0.00;2201.60;;;;;;5099450;28;20491;-78
2021/01/21 01:05:55;;;;;;;650.78;417.80;;;0.10;2201.60;;;;;;5103726;28;20115;-78
2021/01/21 01:08:21;;;;;;;703.13;452.85;;;0.10;2201.60;;;;;;5101620;28;20051;-79
2021/01/21 01:10:50;;;;;;;665.78;438.38;;;0.10;2201.60;;;;;;5103812;28;20076;-79
2021/01/21 01:13:19;;;;;;;670.50;440.20;;;0.10;2201.60;;;;;;5097377;28;20035;-80
2021/01/21 01:15:49;;;;;;;707.60;449.92;;;0.00;2201.60;;;;;;5107968;28;20028;-79
2021/01/21 01:18:39;;;;;;;686.40;435.50;;;13.00;2201.60;;;;;;5116688;28;20030;-82
2021/01/21 01:21:06;;;;;;;657.75;430.13;;;0.00;2201.60;;;;;;5119275;28;20007;-78
2021/01/21 01:23:32;;;;;;;644.60;406.88;;;12.90;2201.60;;;;;;5098217;28;20394;-78
2021/01/21 01:25:59;;;;;;;617.70;404.90;;;12.90;2201.60;;;;;;5130358;28;20031;-78
2021/01/21 01:28:25;;;;;;;597.90;381.73;;;0.00;2201.60;;;;;;5096544;28;20062;-78
2021/01/21 01:30:54;;;;;;;565.25;363.90;;;12.90;2201.60;;;;;;5114090;28;20035;-78
2021/01/21 01:33:21;;;;;;;553.80;352.65;;;13.10;2201.60;;;;;;5116901;28;20034;-78
2021/01/21 01:35:47;;;;;;;588.90;387.55;;;13.10;2201.60;;;;;;5116271;28;20040;-77
2021/01/21 01:38:36;;;;;;;567.45;365.88;;;13.20;2201.60;;;;;;5099769;28;20037;-78
2021/01/21 01:41:03;;;;;;;600.20;390.23;;;13.10;2201.60;;;;;;5116097;28;20028;-78
2021/01/21 01:43:31;;;;;;;608.53;384.27;;;13.20;2201.60;;;;;;5137287;28;20054;-78
2021/01/21 01:46:04;;;;;;;622.78;394.13;;;13.20;2201.60;;;;;;5129367;28;20366;-78
2021/01/21 01:48:41;;;;;;;622.50;384.45;;;13.30;2201.60;;;;;;5132457;28;20035;-78
2021/01/21 01:51:33;;;;;;;626.20;403.48;;;13.30;2201.60;;;;;;5116719;28;20035;-78
2021/01/21 01:54:12;;;;;;;618.17;388.90;;;13.30;2201.60;;;;;;5118870;28;20046;-78
2021/01/21 01:57:08;;;;;;;649.83;411.83;;;13.20;2201.60;;;;;;5126206;28;20058;-77
2021/01/21 02:00:25;;;;;;;629.75;399.50;;;13.20;2201.60;;;;;;5123484;28;20043;-77
2021/01/21 02:02:55;;;;;;;672.03;420.60;;;13.10;2201.60;;;;;;5115758;28;20020;-77
2021/01/21 02:05:25;;;;;;;670.85;419.48;;;13.10;2201.60;;;;;;5117243;28;20020;-77
2021/01/21 02:08:35;;;;;;;713.58;444.98;;;13.10;2201.60;;;;;;5115173;28;20047;-76
2021/01/21 02:11:37;;;;;;;686.08;426.02;;;13.10;2201.60;;;;;;5132334;28;20035;-77
2021/01/21 02:15:16;;;;;;;675.60;417.30;;;13.10;2201.60;;;;;;5134879;28;20030;-76
2021/01/21 02:18:15;;;;;;;725.85;447.05;;;13.10;2201.60;;;;;;5135071;28;20040;-77
2021/01/21 02:21:33;;;;;;;707.83;437.17;;;13.00;2201.60;;;;;;5132749;28;20051;-77
2021/01/21 02:24:28;;;;;;;740.33;454.70;;;13.00;2201.60;;;;;;5137357;28;20039;-76
2021/01/21 02:27:39;;;;;;;699.40;433.42;;;13.00;2201.60;;;;;;5138449;28;20027;-77
2021/01/21 02:30:47;;;;;;;713.55;445.42;;;12.90;2201.60;;;;;;5110786;28;20095;-78
2021/01/21 02:33:48;;;;;;;662.95;422.13;;;13.00;2201.60;;;;;;5135089;28;20016;-81
2021/01/21 02:36:24;;;;;;;563.17;353.38;;;13.00;2201.60;;;;;;5118769;28;20019;-79
2021/01/21 02:39:03;;;;;;;573.85;352.67;;;13.10;2201.60;;;;;;5121546;28;20064;-76
2021/01/21 02:41:33;;;;;;;569.78;359.05;;;13.00;2201.60;;;;;;5128291;28;20051;-76
2021/01/21 02:44:30;;;;;;;590.60;377.52;;;13.00;2201.60;;;;;;5118394;28;20095;-77
2021/01/21 02:47:15;;;;;;;546.80;337.15;;;13.00;2201.60;;;;;;5136348;28;20055;-77
2021/01/21 02:50:38;;;;;;;519.38;324.13;;;13.00;2201.60;;;;;;5127219;28;20116;-77
2021/01/21 02:53:13;;;;;;;511.40;310.55;;;13.10;2201.60;;;;;;5133848;28;20028;-77
2021/01/21 02:55:46;;;;;;;477.83;292.17;;;12.90;2201.60;;;;;;5116637;28;20080;-77
2021/01/21 02:58:45;;;;;;;455.88;264.60;;;12.90;2201.60;;;;;;5116845;28;20027;-77
2021/01/21 03:01:14;;;;;;;430.60;256.58;;;0.10;2201.60;;;;;;5115197;28;20124;-77
2021/01/21 03:03:41;;;;;;;460.58;276.75;;;0.00;2201.60;;;;;;5116039;28;20027;-77
2021/01/21 03:06:09;;;;;;;460.92;281.52;;;0.00;2201.60;;;;;;5116081;28;20074;-77
2021/01/21 03:08:36;;;;;;;487.92;300.95;;;0.00;2201.60;;;;;;5113868;28;20019;-77
2021/01/21 03:11:12;;;;;;;519.80;325.02;;;12.90;2201.60;;;;;;5117008;28;20028;-77
2021/01/21 03:13:47;;;;;;;478.33;290.63;;;13.10;2201.60;;;;;;5117974;28;20095;-77
2021/01/21 03:16:13;;;;;;;488.00;299.58;;;13.00;2201.60;;;;;;5118085;28;20034;-77
2021/01/21 03:18:39;;;;;;;488.85;294.50;;;13.10;2201.60;;;;;;5116152;28;20042;-77
2021/01/21 03:21:05;;;;;;;500.73;311.23;;;13.10;2201.60;;;;;;5114832;28;20485;-77
2021/01/21 03:23:31;;;;;;;505.08;310.98;;;13.20;2201.60;;;;;;5116953;28;20024;-77
2021/01/21 03:25:57;;;;;;;509.42;310.98;;;13.20;2201.60;;;;;;5117699;28;20050;-77
2021/01/21 03:28:23;;;;;;;532.92;325.30;;;13.20;2201.60;;;;;;5115029;28;20026;-78
2021/01/21 03:30:49;;;;;;;524.38;325.08;;;0.00;2201.60;;;;;;5099758;28;20074;-78
2021/01/21 03:33:15;;;;;;;516.10;309.23;;;13.10;2201.60;;;;;;5114129;28;20019;-82
2021/01/21 03:35:41;;;;;;;524.92;314.55;;;13.30;2201.60;;;;;;5115792;28;20034;-77
2021/01/21 03:38:07;;;;;;;521.60;315.98;;;13.10;2201.60;;;;;;5116455;28;20386;-77
2021/01/21 03:40:34;;;;;;;565.88;335.38;;;13.10;2201.60;;;;;;5134213;28;20020;-78
2021/01/21 03:43:00;;;;;;;532.45;318.27;;;13.10;2201.60;;;;;;5116105;28;20044;-77
2021/01/21 03:45:26;;;;;;;540.03;322.92;;;13.10;2201.60;;;;;;5116608;28;20030;-77
2021/01/21 03:47:52;;;;;;;546.03;336.42;;;13.10;2201.60;;;;;;5115659;28;20023;-77
2021/01/21 03:50:18;;;;;;;543.33;337.10;;;13.00;2201.60;;;;;;5099669;28;20031;-77
2021/01/21 03:52:44;;;;;;;566.47;349.13;;;13.00;2201.60;;;;;;5116159;28;20475;-77
2021/01/21 03:55:10;;;;;;;545.50;338.85;;;0.60;2201.60;;;;;;5116130;28;20040;-78
2021/01/21 03:57:36;;;;;;;542.50;329.58;;;12.90;2201.60;;;;;;5116820;28;20019;-77
2021/01/21 04:00:04;;;;;;;515.50;326.23;;;12.90;2201.60;;;;;;5117506;28;20043;-78
2021/01/21 04:02:30;;;;;;;505.20;303.98;;;13.60;2201.60;;;;;;5117876;28;20091;-78
2021/01/21 04:04:56;;;;;;;497.42;294.58;;;0.90;2201.60;;;;;;5117015;28;20083;-77
2021/01/21 04:07:23;;;;;;;501.83;295.05;;;0.10;2201.60;;;;;;5135130;28;20027;-78
2021/01/21 04:09:54;;;;;;;499.38;305.95;;;0.00;2201.60;;;;;;5116753;28;20023;-78
2021/01/21 04:12:20;;;;;;;498.75;295.40;;;0.00;2201.60;;;;;;5116010;28;20024;-78
2021/01/21 04:14:47;;;;;;;524.88;315.85;;;12.90;2201.60;;;;;;5115832;28;20038;-77
2021/01/21 04:17:14;;;;;;;531.38;324.55;;;13.10;2201.60;;;;;;5115526;28;20038;-78
2021/01/21 04:19:41;;;;;;;559.67;339.85;;;13.00;2201.60;;;;;;5116753;28;20030;-77
2021/01/21 04:22:06;;;;;;;547.78;333.02;;;13.00;2201.60;;;;;;5097827;28;20020;-79
2021/01/21 04:24:33;;;;;;;548.55;335.98;;;13.00;2201.60;;;;;;5113565;28;20028;-79
2021/01/21 04:26:59;;;;;;;544.50;324.88;;;12.90;2201.60;;;;;;5114505;28;20028;-79
2021/01/21 04:29:25;;;;;;;521.72;313.45;;;13.00;2201.60;;;;;;5099175;28;20056;-77
2021/01/21 04:31:51;;;;;;;508.60;303.48;;;12.90;2201.60;;;;;;5113395;28;20087;-78
2021/01/21 04:34:17;;;;;;;522.42;319.77;;;0.00;2201.60;;;;;;5113359;28;20032;-79
2021/01/21 04:36:43;;;;;;;524.33;312.00;;;12.90;2201.60;;;;;;5095954;28;20095;-77
2021/01/21 04:39:09;;;;;;;510.08;301.52;;;12.90;2201.60;;;;;;5097605;28;20122;-77
2021/01/21 04:41:35;;;;;;;513.85;307.63;;;12.90;2201.60;;;;;;5115045;28;20040;-77
2021/01/21 04:44:01;;;;;;;503.25;300.70;;;12.90;2201.60;;;;;;5114440;28;20026;-77
2021/01/21 04:46:28;;;;;;;497.00;292.90;;;13.00;2201.60;;;;;;5116054;28;20116;-77
2021/01/21 04:48:55;;;;;;;478.23;295.35;;;13.00;2201.60;;;;;;5115787;28;20008;-77
2021/01/21 04:51:22;;;;;;;512.65;323.73;;;0.00;2201.60;;;;;;5116320;28;20030;-77
2021/01/21 04:53:53;;;;;;;554.70;368.45;;;12.90;2201.60;;;;;;5116181;28;20121;-77
2021/01/21 04:56:25;;;;;;;549.60;351.63;;;13.00;2201.60;;;;;;5099979;28;20055;-78
2021/01/21 04:58:55;;;;;;;562.90;369.75;;;13.00;2201.60;;;;;;5116495;28;20023;-77
2021/01/21 05:01:21;;;;;;;568.78;374.58;;;13.00;2201.60;;;;;;5115553;28;20003;-77
2021/01/21 05:03:48;;;;;;;553.85;351.40;;;13.00;2201.60;;;;;;5134560;28;20071;-77
2021/01/21 05:06:15;;;;;;;561.72;373.95;;;12.90;2201.60;;;;;;5116328;28;20047;-77
2021/01/21 05:08:43;;;;;;;555.35;359.85;;;12.90;2201.60;;;;;;5134060;28;20028;-78
2021/01/21 05:11:09;;;;;;;540.65;348.02;;;12.90;2201.60;;;;;;5116123;28;20031;-77
2021/01/21 05:13:35;;;;;;;571.15;377.10;;;12.90;2201.60;;;;;;5114160;28;20034;-78
2021/01/21 05:16:01;;;;;;;518.17;329.38;;;12.90;2201.60;;;;;;5114388;28;20028;-77
2021/01/21 05:18:33;;;;;;;549.97;356.77;;;13.10;2201.60;;;;;;5133599;28;20510;-79
2021/01/21 05:20:59;;;;;;;560.25;363.38;;;13.00;2201.60;;;;;;5116180;28;20030;-77
2021/01/21 05:23:28;;;;;;;539.45;352.05;;;13.00;2201.60;;;;;;5115492;28;20027;-78
2021/01/21 05:25:55;;;;;;;522.92;336.20;;;13.10;2201.60;;;;;;5115879;28;20039;-77
2021/01/21 05:28:21;;;;;;;546.97;350.60;;;13.00;2201.60;;;;;;5115287;28;20020;-78
2021/01/21 05:30:48;;;;;;;539.13;354.73;;;13.10;2201.60;;;;;;5124283;27;20026;-77
2021/01/21 05:33:15;;;;;;;509.33;318.67;;;13.00;2201.60;;;;;;5135489;27;20026;-77
2021/01/21 05:35:42;;;;;;;512.22;315.13;;;38.50;2201.60;;;;;;5135311;28;20035;-77
2021/01/21 05:38:09;;;;;;;526.53;328.85;;;12.90;2201.60;;;;;;5135167;27;20048;-78
2021/01/21 05:40:36;;;;;;;471.92;291.90;;;12.90;2201.60;;;;;;5135300;27;20115;-77
2021/01/21 05:43:03;;;;;;;500.40;304.25;;;13.00;2201.60;;;;;;5135563;28;20043;-77
2021/01/21 05:45:28;;;;;;;446.67;266.73;;;13.00;2201.60;;;;;;5135460;28;20053;-77
2021/01/21 05:48:00;;;;;;;450.98;260.95;;;12.90;2201.60;;;;;;5152885;28;20043;-77
2021/01/21 05:50:29;;;;;;;430.17;254.93;;;0.00;2201.60;;;;;;5136348;28;20027;-77
2021/01/21 05:52:56;;;;;;;427.10;253.05;;;0.00;2201.60;;;;;;5135410;28;20027;-77
2021/01/21 05:55:25;;;;;;;353.35;208.10;;;0.00;2201.60;;;;;;5119954;27;20024;-77
2021/01/21 05:57:55;;;;;;;360.05;219.32;;;0.10;2201.60;;;;;;5140183;27;20030;-78
2021/01/21 06:00:27;;;;;;;392.92;235.57;;;0.00;2201.60;;;;;;5123839;27;20031;-78
2021/01/21 06:02:59;;;;;;;;;;;12.90;2201.60;;;;;;5141458;27;20023;-77
2021/01/21 06:05:28;;;;;;;423.48;248.05;;;13.00;2201.60;;;;;;5140104;27;19936;-78
2021/01/21 06:07:54;;;;;;;450.73;268.40;;;13.00;2201.60;;;;;;5123304;27;20028;-78
2021/01/21 06:10:26;;;;;;;390.40;230.05;;;12.90;2201.60;;;;;;5123506;27;20018;-78
2021/01/21 06:12:54;;;;;;;375.17;234.80;;;13.00;2201.60;;;;;;5140640;27;20023;-77
2021/01/21 06:15:22;;;;;;;353.45;211.07;;;13.00;2201.60;;;;;;5140195;27;20039;-77
2021/01/21 06:17:50;;;;;;;372.65;213.85;;;12.90;2201.60;;;;;;5123862;27;20027;-78
2021/01/21 06:20:18;;;;;;;441.20;264.58;;;0.10;2201.60;;;;;;5121599;27;20110;-82
2021/01/21 06:22:47;;;;;;;423.60;252.30;;;0.10;2201.60;;;;;;5121339;27;20046;-79
2021/01/21 06:25:20;;;;;;;385.52;230.82;;;0.10;2201.60;;;;;;5137788;27;20026;-77
2021/01/21 06:27:47;;;;;;;381.77;235.50;;;0.20;2201.60;;;;;;5138295;27;20046;-77
2021/01/21 06:30:21;;;;;;;657.40;387.20;;;0.30;2201.60;;;;;;5136724;27;20026;-78
2021/01/21 06:32:52;;;;;;;572.85;352.13;;;0.30;2201.60;;;;;;5136738;27;20027;-78
2021/01/21 06:35:20;;;;;;;518.33;327.27;;;0.40;2201.60;;;;;;5136513;27;20023;-81
2021/01/21 06:37:55;;;;;;;459.55;278.85;;;0.40;2201.60;;;;;;5133504;27;20038;-78
2021/01/21 06:40:23;;;;;;;497.50;316.23;;;0.40;2201.60;;;;;;5115282;27;20031;-78
2021/01/21 06:43:07;;;;;;;462.17;287.83;;;0.30;2201.60;;;;;;5130493;27;20031;-78
2021/01/21 06:45:38;;;;;;;597.50;367.13;;;0.20;2201.60;;;;;;5135218;27;20015;-78
2021/01/21 06:48:05;;;;;;;523.40;340.65;;;0.30;2201.60;;;;;;5136927;27;20043;-78
2021/01/21 06:50:32;;;;;;;484.52;300.10;;;0.20;2201.60;;;;;;5121506;27;20023;-78
2021/01/21 06:53:06;;;;;;;441.80;279.27;;;0.40;2201.60;;;;;;5137301;27;20098;-78
2021/01/21 06:55:36;;;;;;;479.63;302.67;;;0.30;2201.60;;;;;;5150916;27;20019;-79
2021/01/21 06:58:06;;;;;;;475.50;300.45;;;0.40;2201.60;;;;;;5133056;27;20490;-78
2021/01/21 07:00:43;;;;;;;464.98;281.40;;;0.60;2201.60;;;;;;5128907;27;20379;-79
2021/01/21 07:03:29;;;;;;;463.73;290.83;;;0.60;2201.60;;;;;;5124906;27;20031;-81
2021/01/21 07:05:58;;;;;;;457.25;284.15;;;0.70;2201.60;;;;;;5125946;27;20107;-79
2021/01/21 07:08:27;;;;;;;456.75;284.33;;;0.70;2201.60;;;;;;5127105;27;20026;-79
2021/01/21 07:11:04;;;;;;;461.30;292.65;;;0.60;2201.60;;;;;;5126940;27;20474;-78
2021/01/21 07:13:30;;;;;;;488.75;309.85;;;0.70;2201.60;;;;;;5122963;27;20545;-79
2021/01/21 07:16:03;;;;;;;547.13;366.70;;;0.80;2201.60;;;;;;5120175;27;20019;-80
2021/01/21 07:18:37;;;;;;;512.30;334.00;;;0.80;2201.60;;;;;;5107532;27;20028;-79
2021/01/21 07:21:05;;;;;;;475.98;307.17;;;0.80;2201.60;;;;;;5125328;27;20056;-79
2021/01/21 07:23:50;;;;;;;627.65;422.52;;;0.90;2201.60;;;;;;5120621;27;20458;-80
2021/01/21 07:26:32;;;;;;;551.50;353.10;;;0.70;2201.60;;;;;;5124071;27;20027;-80
2021/01/21 07:29:12;;;;;;;582.83;387.60;;;0.70;2201.60;;;;;;5125772;27;20019;-80
2021/01/21 07:31:59;;;;;;;612.53;405.70;;;0.80;2201.60;;;;;;5123938;27;20015;-81
2021/01/21 07:34:26;;;;;;;621.78;413.02;;;0.90;2201.60;;;;;;5116485;27;20027;-79
2021/01/21 07:37:22;;;;;;;616.28;410.48;;;25.60;2201.60;;;;;;5118871;27;20023;-80
2021/01/21 07:40:49;;;;;;;636.97;408.60;;;25.70;2201.60;;;;;;5120087;27;20557;-82
2021/01/21 07:43:20;;;;;;;623.70;416.80;;;25.80;2201.60;;;;;;5138162;27;20529;-82
2021/01/21 07:45:48;;;;;;;627.92;415.40;;;25.80;2201.60;;;;;;5118941;27;20027;-85
2021/01/21 07:48:54;;;;;;;612.85;402.77;;;26.00;2201.60;;;;;;5102233;27;20034;-85
2021/01/21 07:51:42;;;;;;;598.10;401.73;;;26.10;2201.60;;;;;;5130856;27;20050;-88
2021/01/21 07:54:09;;;;;;;575.33;366.35;;;26.20;2201.60;;;;;;5137098;27;20049;-87
2021/01/21 07:56:39;;;;;;;570.53;374.83;;;26.40;2201.60;;;;;;5118530;27;20030;-84
2021/01/21 07:59:05;;;;;;;618.92;414.38;;;26.40;2201.60;;;;;;5118840;27;20523;-86
2021/01/21 08:01:31;;;;;;;635.65;414.83;;;26.40;2201.60;;;;;;5118513;27;20031;-87
2021/01/21 08:04:05;;;;;;;624.20;411.38;;;26.50;2201.60;;;;;;5119019;27;20034;-86
2021/01/21 08:06:31;;;;;;;558.38;381.00;;;51.20;2227.20;;;;;;5118989;27;20451;-86
2021/01/21 08:09:11;;;;;;;537.05;372.70;;;51.30;2227.20;;;;;;5118395;27;20060;-85
2021/01/21 08:11:37;;;;;;;518.28;353.33;;;51.30;2227.20;;;;;;5118657;27;20030;-85
2021/01/21 08:14:03;;;;;;;522.58;357.10;;;51.40;2227.20;;;;;;5119260;27;20027;-87
2021/01/21 08:16:29;;;;;;;483.90;335.27;;;51.40;2227.20;;;;;;5118657;27;20031;-86
2021/01/21 08:19:02;;;;;;;501.13;338.35;;;51.50;2227.20;;;;;;5117457;28;20031;-85
2021/01/21 08:21:28;;;;;;;502.50;341.92;;;51.50;2227.20;;;;;;5118443;27;20027;-87
2021/01/21 08:24:02;;;;;;;591.58;427.63;;;51.60;2227.20;;;;;;5118400;27;20069;-88
2021/01/21 08:26:30;;;;;;;566.45;397.67;;;51.60;2227.20;;;;;;5118363;27;20020;-86
2021/01/21 08:28:57;;;;;;;614.65;437.90;;;51.70;2227.20;;;;;;5118258;27;20027;-86
2021/01/21 08:31:47;;;;;;;474.50;323.83;;;51.80;2227.20;;;;;;5116837;27;20027;-86
2021/01/21 08:34:19;;;;;;;445.25;292.23;;;51.80;2227.20;;;;;;5120114;27;20420;-86
2021/01/21 08:36:45;;;;;;;;;;;52.00;2227.20;;;;;;5122361;27;20023;-87
2021/01/21 08:39:13;;;;;;;464.23;310.45;;;52.10;2227.20;;;;;;5122819;27;19903;-88
2021/01/21 08:41:41;;;;;;;470.75;318.00;;;52.10;2227.20;;;;;;5115828;27;20127;-84
2021/01/21 08:44:13;;;;;;;310.27;203.38;;;76.80;2227.20;;;;;;5118477;27;20104;-86
2021/01/21 08:46:42;;;;;;;447.00;312.85;;;77.10;2227.20;;;;;;5107371;27;20493;-87
2021/01/21 08:49:12;;;;;;;475.27;328.83;;;77.10;2227.20;;;;;;5100649;28;20031;-86
2021/01/21 08:51:42;;;;;;;473.45;330.50;;;77.10;2227.20;;;;;;5114202;27;20027;-87
2021/01/21 08:54:16;;;;;;;480.08;334.38;;;77.10;2227.20;;;;;;5116392;27;20114;-88
2021/01/21 08:56:42;;;;;;;433.23;299.42;;;77.10;2227.20;;;;;;5116962;27;20019;-87
2021/01/21 08:59:45;;;;;;;451.73;310.98;;;77.00;2227.20;;;;;;5115934;27;20026;-87
2021/01/21 09:02:12;;;;;;;470.20;326.75;;;77.20;2227.20;;;;;;5044068;28;20073;-88
2021/01/21 09:04:39;;;;;;;430.65;300.20;;;77.30;2227.20;;;;;;5088147;28;20035;-88
2021/01/21 09:07:07;;;;;;;448.08;321.38;;;77.40;2227.20;;;;;;5095717;28;20458;-88
2021/01/21 09:09:40;;;;;;;416.00;294.73;;;77.50;2227.20;;;;;;5096686;28;20034;-86
2021/01/21 09:12:16;;;;;;;406.35;283.13;;;77.70;2227.20;;;;;;5096956;28;20088;-88
2021/01/21 09:14:44;;;;;;;404.42;274.42;;;102.40;2227.20;;;;;;5102301;27;21829;-88
2021/01/21 09:17:16;;;;;;;297.95;197.98;;;102.50;2227.20;;;;;;5105502;27;20538;-88
2021/01/21 09:19:45;;;;;;;430.90;257.73;;;102.70;2227.20;;;;;;5113429;27;20061;-90
2021/01/21 09:22:14;;;;;;;263.10;155.88;;;102.80;2227.20;;;;;;5113036;27;20030;-85
2021/01/21 09:24:58;;;;;;;297.50;168.80;;;103.00;2227.20;;;;;;5116346;27;20054;-88
2021/01/21 09:27:24;;;;;;;295.92;178.10;;;103.20;2227.20;;;;;;5116070;27;20083;-87
2021/01/21 09:30:17;;;;;;;215.00;135.02;;;103.30;2227.20;;;;;;5116666;27;20122;-86
2021/01/21 09:32:43;;;;;;;191.90;116.28;;;128.10;2227.20;;;;;;5111823;27;20496;-87
2021/01/21 09:35:13;;;;;;;146.23;92.40;;;128.20;2227.20;;;;;;5116394;27;20019;-85
2021/01/21 09:37:42;;;;;;;203.63;126.60;;;128.30;2201.60;;;;;;5116594;28;20023;-85
2021/01/21 09:40:13;;;;;;;190.48;123.55;;;128.40;2201.60;;;;;;5111968;28;20035;-86
2021/01/21 09:42:40;;;;;;;177.13;114.50;;;128.50;2201.60;;;;;;5099668;28;20056;-89
2021/01/21 09:45:08;;;;;;;168.35;111.10;;;128.60;2201.60;;;;;;5087804;28;20044;-86
2021/01/21 09:47:40;;;;;;;157.77;102.05;;;128.70;2176.00;;;;;;5083262;28;20019;-89
2021/01/21 09:50:10;;;;;;;163.60;106.78;;;128.80;2176.00;;;;;;5087764;28;20027;-87
2021/01/21 09:52:36;;;;;;;144.48;94.55;;;128.90;2176.00;;;;;;5096308;28;20059;-88
2021/01/21 09:55:03;;;;;;;118.70;78.82;;;153.60;2150.40;;;;;;5113517;28;20023;-89
2021/01/21 09:57:29;;;;;;;136.70;89.88;;;153.70;2150.40;;;;;;5102187;28;20055;-87
2021/01/21 09:59:55;;;;;;;133.05;91.78;;;153.80;2150.40;;;;;;5104944;28;20032;-87
2021/01/21 10:02:24;;;;;;;110.13;74.78;;;153.80;2150.40;;;;;;5114710;28;20028;-83
2021/01/21 10:04:50;;;;;;;79.68;52.88;;;153.90;2124.80;;;;;;5095845;28;20047;-85
2021/01/21 10:07:16;;;;;;;78.63;51.63;;;153.90;2124.80;;;;;;5113664;28;20032;-89
2021/01/21 10:09:43;;;;;;;69.75;45.65;;;154.00;2099.20;;;;;;5096347;28;20118;-87
2021/01/21 10:12:09;;;;;;;53.05;37.15;;;128.90;2099.20;;;;;;5095951;28;20027;-88
2021/01/21 10:14:37;;;;;;;46.33;30.85;;;154.10;2073.60;;;;;;5109079;28;20024;-85
2021/01/21 10:17:07;;;;;;;52.38;34.25;;;154.20;2073.60;;;;;;5105391;28;20027;-86
2021/01/21 10:19:34;;;;;;;51.05;30.92;;;154.20;2073.60;;;;;;5094124;28;20027;-88
2021/01/21 10:22:00;;;;;;;40.53;26.63;;;154.20;2048.00;;;;;;5095153;28;20031;-88
2021/01/21 10:24:29;;;;;;;43.22;27.67;;;154.30;2048.00;;;;;;5106732;28;20168;-82
2021/01/21 10:26:54;;;;;;;57.90;35.88;;;154.50;2022.40;;;;;;5095036;28;20383;-81
2021/01/21 10:29:20;;;;;;;81.07;52.38;;;179.20;2022.40;;;;;;5095256;28;20084;-80
2021/01/21 10:31:46;;;;;;;56.13;32.42;;;179.40;2022.40;;;;;;5094726;28;20459;-82
2021/01/21 10:34:12;;;;;;;54.65;36.92;;;179.60;1996.80;;;;;;5095186;28;20051;-82
2021/01/21 10:36:38;;;;;;;54.80;35.97;;;179.70;1996.80;;;;;;5113588;28;20024;-82
2021/01/21 10:39:04;;;;;;;97.70;59.85;;;179.80;1971.20;;;;;;5095371;28;20456;-81
2021/01/21 10:41:30;;;;;;;42.22;28.42;;;179.90;1920.00;;;;;;5092311;28;20475;-88
2021/01/21 10:43:56;;;;;;;44.42;28.17;;;180.00;1945.60;;;;;;5093087;28;20028;-84
2021/01/21 10:46:22;;;;;;;46.95;30.58;;;179.90;1920.00;;;;;;5090563;28;20043;-86
2021/01/21 10:48:48;;;;;;;55.78;37.40;;;179.90;1945.60;;;;;;5097358;28;20023;-86
2021/01/21 10:51:14;;;;;;;45.70;31.35;;;179.80;1945.60;;;;;;5099599;28;20034;-86
2021/01/21 10:53:40;;;;;;;56.28;37.33;;;179.70;1945.60;;;;;;5098501;28;20079;-87
2021/01/21 10:56:06;;;;;;;69.63;45.50;;;179.90;1920.00;;;;;;5099473;28;20023;-89
2021/01/21 10:58:32;;;;;;;69.18;44.75;;;180.00;1945.60;;;;;;5099550;28;20160;-86
2021/01/21 11:00:58;;;;;;;50.58;34.13;;;204.80;1920.00;;;;;;5099274;28;20027;-84
2021/01/21 11:03:24;;;;;;;34.47;22.33;;;180.10;1894.40;;;;;;5117940;28;20020;-85
2021/01/21 11:05:49;;;;;;;39.05;26.02;;;204.80;1894.40;;;;;;5099230;28;20034;-88
2021/01/21 11:08:15;;;;;;;40.25;29.50;;;205.00;1920.00;;;;;;5099250;28;20027;-87
2021/01/21 11:10:42;;;;;;;38.22;28.38;;;205.10;1894.40;;;;;;5099729;28;20060;-89
2021/01/21 11:13:08;;;;;;;38.42;28.55;;;205.00;1894.40;;;;;;5099853;28;20076;-83
2021/01/21 11:15:34;;;;;;;36.38;25.90;;;205.20;1894.40;;;;;;5099144;28;20030;-86
2021/01/21 11:18:01;;;;;;;35.25;26.98;;;205.20;1894.40;;;;;;5099319;28;20027;-88
2021/01/21 11:20:32;;;;;;;42.17;27.98;;;205.20;1894.40;;;;;;5098993;28;20038;-83
2021/01/21 11:22:57;;;;;;;39.35;29.08;;;205.30;1894.40;;;;;;5099147;28;20024;-85
2021/01/21 11:25:24;;;;;;;46.55;34.75;;;205.40;1894.40;;;;;;5097453;28;20120;-87
2021/01/21 11:27:50;;;;;;;42.55;28.45;;;205.50;1868.80;;;;;;5087509;28;20042;-87
2021/01/21 11:30:16;;;;;;;36.42;24.65;;;205.60;1868.80;;;;;;5087912;28;20019;-85
2021/01/21 11:32:42;;;;;;;39.30;28.55;;;205.70;1843.20;;;;;;5084160;28;20031;-83
2021/01/21 11:35:08;;;;;;;49.20;35.97;;;230.40;1843.20;;;;;;5093622;28;20020;-83
2021/01/21 11:37:34;;;;;;;41.53;28.85;;;230.50;1817.60;;;;;;5089358;28;20023;-84
2021/01/21 11:40:00;;;;;;;37.78;23.88;;;230.70;1817.60;;;;;;5106953;28;20119;-84
2021/01/21 11:42:25;;;;;;;44.33;30.75;;;231.00;1792.00;;;;;;5083417;28;20446;-82
2021/01/21 11:44:51;;;;;;;52.97;33.85;;;231.20;1766.40;;;;;;5077880;28;20031;-85
2021/01/21 11:47:18;;;;;;;39.58;29.48;;;256.10;1766.40;;;;;;5078840;28;20024;-86
2021/01/21 11:49:44;;;;;;;30.25;21.15;;;256.30;1715.20;;;;;;5078113;28;20471;-84
2021/01/21 11:52:10;;;;;;;32.00;23.67;;;282.00;1715.20;;;;;;5078909;28;20387;-85
2021/01/21 11:54:36;;;;;;;29.88;23.88;;;256.90;1664.00;;;;;;5077951;28;20024;-85
2021/01/21 11:57:03;;;;;;;29.38;20.92;;;281.80;1689.60;;;;;;5078361;28;20024;-84
2021/01/21 11:59:30;;;;;;;32.28;22.83;;;256.80;1638.40;;;;;;5098084;28;20112;-84
2021/01/21 12:01:55;;;;;;;36.42;26.73;;;282.10;1612.80;;;;;;5098950;28;20526;-83
2021/01/21 12:04:21;;;;;;;37.92;28.60;;;282.30;1612.80;;;;;;5116570;28;20102;-84
2021/01/21 12:06:50;;;;;;;28.02;21.08;;;282.50;1612.80;;;;;;5098296;28;20028;-83
2021/01/21 12:09:16;;;;;;;35.08;23.90;;;307.30;1587.20;;;;;;5098338;28;20063;-85
2021/01/21 12:11:42;;;;;;;37.63;27.33;;;307.60;1561.60;;;;;;5098264;28;20375;-86
2021/01/21 12:14:08;;;;;;;41.13;29.52;;;307.80;1561.60;;;;;;5098606;28;20020;-82